Time;durP1;ratioP1;P1;durP2;ratioP2;P2;SDS_P1;SDS_P2;PMS_P1;PMS_P2;Temp;Humidity;BMP_temperature;BMP_pressure;BME280_temperature;BME280_humidity;BME280_pressure;Samples;Min_cycle;Max_cycle;Signal;HPM_P1;HPM_P2
2021/10/10 00:00:07;;;;;;;26.17;13.07;;;;;;;1.89;100.00;102311.75;5003498;28;20209;-72
2021/10/10 00:02:39;;;;;;;22.53;12.53;;;;;;;2.11;100.00;102309.94;5005382;28;20217;-73
2021/10/10 00:05:06;;;;;;;25.17;13.33;;;;;;;2.06;100.00;102314.94;5010034;28;20204;-72
2021/10/10 00:07:33;;;;;;;25.40;13.17;;;;;;;2.08;100.00;102311.59;5009105;28;20560;-73
2021/10/10 00:09:59;;;;;;;23.40;12.17;;;;;;;2.07;100.00;102314.97;5009039;28;20216;-72
2021/10/10 00:12:26;;;;;;;24.70;12.17;;;;;;;1.92;100.00;102311.88;5010794;28;20285;-73
2021/10/10 00:14:53;;;;;;;24.20;13.47;;;;;;;1.94;100.00;102314.50;5008861;28;20801;-72
2021/10/10 00:17:20;;;;;;;24.97;12.93;;;;;;;1.98;100.00;102311.22;5006221;28;20221;-74
2021/10/10 00:19:47;;;;;;;25.23;13.63;;;;;;;1.94;100.00;102310.22;5011232;28;20207;-72
2021/10/10 00:22:14;;;;;;;24.30;12.60;;;;;;;2.14;100.00;102305.78;5013180;28;20690;-74
2021/10/10 00:24:40;;;;;;;25.30;13.47;;;;;;;2.15;100.00;102309.25;5007832;28;20212;-72
2021/10/10 00:27:07;;;;;;;23.93;12.30;;;;;;;1.79;100.00;102312.22;5007409;28;20200;-73
2021/10/10 00:29:33;;;;;;;19.53;11.80;;;;;;;1.81;100.00;102306.34;5024539;28;20202;-73
2021/10/10 00:32:01;;;;;;;22.33;12.33;;;;;;;1.60;100.00;102311.56;5019788;28;20231;-72
2021/10/10 00:34:28;;;;;;;19.83;10.97;;;;;;;1.66;100.00;102309.22;5006814;28;21467;-72
2021/10/10 00:36:57;;;;;;;21.13;11.53;;;;;;;1.43;100.00;102305.78;5009925;28;20786;-72
2021/10/10 00:39:23;;;;;;;18.73;11.07;;;;;;;1.65;100.00;102298.84;5007455;28;20766;-72
2021/10/10 00:41:50;;;;;;;16.70;10.50;;;;;;;1.81;100.00;102306.34;5008076;28;20231;-72
2021/10/10 00:44:16;;;;;;;18.10;10.63;;;;;;;1.76;100.00;102305.28;5009382;28;20212;-73
2021/10/10 00:46:43;;;;;;;17.90;10.80;;;;;;;1.51;100.00;102298.34;5004743;28;20213;-72
2021/10/10 00:49:09;;;;;;;19.87;10.97;;;;;;;1.49;100.00;102289.69;5008983;28;20232;-72
2021/10/10 00:51:38;;;;;;;19.33;11.13;;;;;;;1.21;100.00;102290.34;5010700;28;20232;-72
2021/10/10 00:54:07;;;;;;;20.13;10.93;;;;;;;1.31;100.00;102287.31;5007809;28;20205;-72
2021/10/10 00:56:33;;;;;;;18.13;10.30;;;;;;;1.24;100.00;102290.47;5007169;28;20278;-73
2021/10/10 00:59:01;;;;;;;19.90;10.53;;;;;;;1.38;100.00;102297.00;5008709;28;20228;-72
2021/10/10 01:01:28;;;;;;;18.33;10.20;;;;;;;1.35;100.00;102289.16;5008285;28;20220;-73
2021/10/10 01:03:54;;;;;;;16.47;10.37;;;;;;;1.37;100.00;102290.09;5009188;28;20209;-72
2021/10/10 01:06:21;;;;;;;18.53;10.80;;;;;;;1.31;100.00;102280.47;5008617;28;20213;-72
2021/10/10 01:08:48;;;;;;;21.83;10.80;;;;;;;1.28;100.00;102282.03;5009574;28;20196;-72
2021/10/10 01:11:16;;;;;;;17.87;10.23;;;;;;;1.32;100.00;102278.78;5006502;28;20557;-73
2021/10/10 01:13:43;;;;;;;18.43;10.13;;;;;;;1.30;100.00;102275.25;5007513;28;20201;-72
2021/10/10 01:16:10;;;;;;;18.10;10.53;;;;;;;1.27;100.00;102277.75;5007055;28;20218;-73
2021/10/10 01:18:36;;;;;;;20.63;10.53;;;;;;;1.25;100.00;102272.53;5006130;28;20221;-74
2021/10/10 01:21:04;;;;;;;19.53;9.87;;;;;;;1.28;100.00;102264.06;5008482;28;20584;-72
2021/10/10 01:23:31;;;;;;;20.57;11.13;;;;;;;1.10;100.00;102264.22;5007811;28;20573;-74
2021/10/10 01:25:57;;;;;;;19.00;10.67;;;;;;;1.20;100.00;102252.63;5008752;28;20205;-72
2021/10/10 01:28:24;;;;;;;19.70;10.67;;;;;;;1.23;100.00;102250.16;5009169;28;20201;-72
2021/10/10 01:30:50;;;;;;;20.33;10.93;;;;;;;1.20;100.00;102245.78;5009621;28;20220;-72
2021/10/10 01:33:17;;;;;;;20.20;11.27;;;;;;;1.42;100.00;102244.03;5006547;28;20201;-72
2021/10/10 01:35:43;;;;;;;19.27;10.43;;;;;;;1.29;100.00;102248.69;5002184;28;20204;-73
2021/10/10 01:38:15;;;;;;;19.53;11.53;;;;;;;1.18;100.00;102244.84;5005145;28;20228;-72
2021/10/10 01:40:44;;;;;;;24.83;12.67;;;;;;;1.22;100.00;102244.16;5006345;28;20235;-72
2021/10/10 01:43:10;;;;;;;24.47;12.50;;;;;;;1.22;100.00;102244.16;5006075;28;20240;-72
2021/10/10 01:45:38;;;;;;;23.83;11.63;;;;;;;1.05;100.00;102240.91;5007608;28;20851;-72
2021/10/10 01:48:05;;;;;;;21.00;11.27;;;;;;;1.12;100.00;102242.91;5008829;28;20200;-73
2021/10/10 01:50:33;;;;;;;18.80;10.93;;;;;;;0.98;100.00;102233.78;5006685;28;20699;-72
2021/10/10 01:52:59;;;;;;;22.57;11.57;;;;;;;1.07;100.00;102234.16;5008332;28;20216;-72
2021/10/10 01:55:27;;;;;;;18.17;10.70;;;;;;;0.87;100.00;102235.06;5009633;28;20546;-72
2021/10/10 01:57:53;;;;;;;22.87;11.60;;;;;;;0.81;100.00;102238.28;5006585;28;20223;-72
2021/10/10 02:00:20;;;;;;;20.57;11.30;;;;;;;0.82;100.00;102231.44;5009316;28;20201;-74
2021/10/10 02:02:46;;;;;;;21.67;11.07;;;;;;;0.68;100.00;102234.34;5008610;28;20232;-72
2021/10/10 02:05:12;;;;;;;19.37;11.10;;;;;;;0.60;100.00;102232.25;5009413;28;20208;-72
2021/10/10 02:07:39;;;;;;;20.53;11.87;;;;;;;0.62;100.00;102228.09;5003304;28;20595;-74
2021/10/10 02:10:07;;;;;;;22.03;10.87;;;;;;;0.68;100.00;102230.91;5009149;28;20214;-72
2021/10/10 02:12:35;;;;;;;22.17;11.33;;;;;;;0.72;100.00;102231.09;5003517;28;20228;-72
2021/10/10 02:15:01;;;;;;;20.67;11.77;;;;;;;0.66;100.00;102230.84;5008472;28;20196;-72
2021/10/10 02:17:28;;;;;;;20.93;12.43;;;;;;;0.75;100.00;102226.06;5007481;28;20560;-72
2021/10/10 02:19:54;;;;;;;20.23;11.83;;;;;;;0.76;100.00;102229.53;5010000;28;20216;-73
2021/10/10 02:22:22;;;;;;;21.40;12.93;;;;;;;0.93;100.00;102222.47;5001604;28;20228;-72
2021/10/10 02:24:50;;;;;;;22.83;12.63;;;;;;;0.83;100.00;102220.38;5004872;28;20201;-72
2021/10/10 02:27:17;;;;;;;24.87;12.00;;;;;;;0.75;100.00;102228.63;5004952;28;20239;-73
2021/10/10 02:29:44;;;;;;;23.60;12.03;;;;;;;0.72;100.00;102218.25;5005673;28;20569;-72
2021/10/10 02:32:11;;;;;;;23.60;12.97;;;;;;;0.50;100.00;102223.34;5007714;28;20243;-73
2021/10/10 02:34:38;;;;;;;24.10;13.47;;;;;;;0.51;100.00;102225.06;5007872;28;20210;-72
2021/10/10 02:37:04;;;;;;;25.87;12.87;;;;;;;0.49;100.00;102219.91;5008530;28;20834;-72
2021/10/10 02:39:30;;;;;;;24.77;12.80;;;;;;;0.45;100.00;102218.00;5004203;28;20220;-72
2021/10/10 02:41:59;;;;;;;28.27;13.13;;;;;;;0.50;100.00;102216.50;5007588;28;20236;-72
2021/10/10 02:44:26;;;;;;;23.43;12.60;;;;;;;0.48;100.00;102207.00;5005180;28;20205;-72
2021/10/10 02:46:53;;;;;;;23.50;12.23;;;;;;;0.58;100.00;102216.81;5007516;28;20572;-72
2021/10/10 02:49:20;;;;;;;25.40;12.33;;;;;;;0.49;100.00;102204.50;5007869;28;20290;-72
2021/10/10 02:51:47;;;;;;;25.47;12.40;;;;;;;0.36;100.00;102212.50;5006123;28;20216;-73
2021/10/10 02:54:13;;;;;;;25.83;12.50;;;;;;;0.25;100.00;102209.50;5006891;28;20230;-72
2021/10/10 02:56:39;;;;;;;23.00;12.80;;;;;;;0.34;100.00;102206.44;5007475;28;20212;-72
2021/10/10 02:59:06;;;;;;;21.53;12.67;;;;;;;0.28;100.00;102208.72;5007633;28;20216;-72
2021/10/10 03:01:33;;;;;;;24.37;12.40;;;;;;;0.28;100.00;102203.59;5010470;28;20218;-73
2021/10/10 03:04:03;;;;;;;20.77;12.17;;;;;;;0.15;100.00;102207.34;5003111;28;20201;-72
2021/10/10 03:06:30;;;;;;;24.80;13.17;;;;;;;0.07;100.00;102207.06;5006060;28;20216;-72
2021/10/10 03:08:56;;;;;;;27.23;13.80;;;;;;;0.15;100.00;102197.09;5004804;28;20616;-74
2021/10/10 03:11:22;;;;;;;19.10;12.27;;;;;;;0.04;100.00;102206.91;5004696;28;20588;-73
2021/10/10 03:13:49;;;;;;;20.17;11.67;;;;;;;0.13;100.00;102203.84;5007644;28;20332;-72
2021/10/10 03:16:15;;;;;;;22.00;12.77;;;;;;;0.07;100.00;102195.88;5009737;28;20206;-72
2021/10/10 03:18:41;;;;;;;21.97;12.43;;;;;;;0.03;100.00;102199.16;5011060;28;20708;-72
2021/10/10 03:21:09;;;;;;;23.77;12.23;;;;;;;-0.03;100.00;102198.06;5001027;28;20607;-72
2021/10/10 03:23:36;;;;;;;22.57;12.63;;;;;;;0.07;100.00;102195.88;5006440;28;20206;-72
2021/10/10 03:26:02;;;;;;;23.03;12.73;;;;;;;0.02;100.00;102192.25;5006732;28;20209;-72
2021/10/10 03:28:29;;;;;;;22.73;12.40;;;;;;;0.11;100.00;102200.34;5006924;28;20235;-72
2021/10/10 03:30:55;;;;;;;23.43;12.87;;;;;;;0.06;100.00;102192.47;5007033;28;20980;-72
2021/10/10 03:33:21;;;;;;;26.23;12.90;;;;;;;-0.16;100.00;102194.91;5007871;28;20212;-72
2021/10/10 03:35:48;;;;;;;25.17;13.87;;;;;;;-0.21;100.00;102189.63;5006490;28;20207;-72
2021/10/10 03:38:16;;;;;;;23.87;12.30;;;;;;;-0.01;100.00;102182.75;5004178;28;20203;-72
2021/10/10 03:40:42;;;;;;;29.93;14.77;;;;;;;0.13;100.00;102183.34;5009331;28;20235;-71
2021/10/10 03:43:09;;;;;;;29.53;14.47;;;;;;;-0.26;100.00;102189.41;5011607;28;20244;-72
2021/10/10 03:45:35;;;;;;;25.27;13.80;;;;;;;-0.20;100.00;102188.78;5013453;28;20214;-72
2021/10/10 03:48:01;;;;;;;30.13;17.27;;;;;;;-0.33;100.00;102189.94;5018847;28;20192;-72
2021/10/10 03:50:28;;;;;;;35.37;18.70;;;;;;;-0.52;100.00;102187.38;5009954;28;20213;-74
2021/10/10 03:52:54;;;;;;;31.43;15.03;;;;;;;-0.44;100.00;102184.34;5012604;28;20200;-72
2021/10/10 03:55:33;;;;;;;22.80;13.40;;;;;;;-0.46;100.00;102191.09;5005463;28;20566;-72
2021/10/10 03:58:00;;;;;;;22.97;13.20;;;;;;;-0.46;100.00;102191.09;5010319;28;20301;-72
2021/10/10 04:00:28;;;;;;;25.13;13.10;;;;;;;-0.40;100.00;102182.81;5011670;28;20490;-72
2021/10/10 04:02:54;;;;;;;20.57;12.03;;;;;;;-0.36;100.00;102182.13;5007833;28;20197;-72
2021/10/10 04:05:24;;;;;;;25.30;12.30;;;;;;;-0.14;100.00;102185.59;5012948;28;20246;-72
2021/10/10 04:07:51;;;;;;;20.57;12.00;;;;;;;-0.47;100.00;102176.53;5008517;28;20299;-72
2021/10/10 04:10:18;;;;;;;21.30;12.07;;;;;;;-0.37;100.00;102175.22;5014778;28;20203;-72
2021/10/10 04:12:46;;;;;;;24.37;12.53;;;;;;;-0.45;100.00;102176.59;5010655;28;20232;-72
2021/10/10 04:15:13;;;;;;;22.80;12.17;;;;;;;-0.41;100.00;102174.22;5009057;28;20197;-72
2021/10/10 04:17:40;;;;;;;24.23;12.33;;;;;;;-0.45;100.00;102172.34;5011506;28;20208;-72
2021/10/10 04:20:08;;;;;;;23.53;12.37;;;;;;;-0.73;100.00;102174.50;5009053;28;20230;-72
2021/10/10 04:22:34;;;;;;;24.43;12.87;;;;;;;-0.60;100.00;102171.66;5006007;28;20235;-72
2021/10/10 04:25:01;;;;;;;25.20;12.07;;;;;;;-0.76;100.00;102175.22;5009766;28;20464;-72
2021/10/10 04:27:27;;;;;;;26.13;13.43;;;;;;;-0.87;100.00;102173.88;5011420;28;20461;-73
2021/10/10 04:29:55;;;;;;;20.50;11.10;;;;;;;-0.75;100.00;102171.88;5011395;28;20447;-72
2021/10/10 04:32:21;;;;;;;22.53;12.03;;;;;;;-0.70;100.00;102167.84;5009941;28;20814;-73
2021/10/10 04:34:48;;;;;;;24.33;12.17;;;;;;;-0.59;100.00;102163.19;5007674;28;20218;-72
2021/10/10 04:37:14;;;;;;;26.57;13.30;;;;;;;-0.43;100.00;102169.84;5006494;28;20208;-72
2021/10/10 04:39:40;;;;;;;27.87;13.20;;;;;;;-0.68;100.00;102170.47;5009643;28;20450;-72
2021/10/10 04:42:07;;;;;;;26.23;13.47;;;;;;;-0.76;100.00;102175.22;5009986;28;20262;-74
2021/10/10 04:44:35;;;;;;;25.43;12.70;;;;;;;-0.81;100.00;102172.47;5010272;28;20208;-72
2021/10/10 04:47:03;;;;;;;23.23;13.33;;;;;;;-0.63;100.00;102174.13;5004538;28;20558;-74
2021/10/10 04:49:30;;;;;;;22.40;12.03;;;;;;;-0.75;100.00;102178.69;5007630;28;20211;-74
2021/10/10 04:51:56;;;;;;;25.40;13.40;;;;;;;-0.67;100.00;102167.06;5006519;28;20478;-72
2021/10/10 04:54:22;;;;;;;28.13;13.53;;;;;;;-0.73;100.00;102162.56;5010060;28;20457;-72
2021/10/10 04:56:49;;;;;;;21.60;12.77;;;;;;;-0.84;100.00;102172.34;5009585;28;20885;-71
2021/10/10 04:59:15;;;;;;;23.53;12.17;;;;;;;-1.06;100.00;102164.47;5009123;28;20530;-71
2021/10/10 05:01:42;;;;;;;24.30;12.60;;;;;;;-0.79;100.00;102172.53;5008828;28;20492;-72
2021/10/10 05:04:09;;;;;;;25.13;13.17;;;;;;;-0.90;100.00;102161.78;5009528;28;20464;-71
2021/10/10 05:06:36;;;;;;;25.47;13.27;;;;;;;-0.67;100.00;102165.41;5005166;28;20463;-72
2021/10/10 05:09:03;;;;;;;25.33;13.30;;;;;;;-0.79;100.00;102163.16;5009041;28;20482;-74
2021/10/10 05:11:29;;;;;;;28.63;15.23;;;;;;;-0.75;100.00;102161.63;5004619;28;20995;-72
2021/10/10 05:13:55;;;;;;;29.07;15.30;;;;;;;-0.73;100.00;102162.56;5009490;28;20812;-72
2021/10/10 05:16:22;;;;;;;30.33;16.03;;;;;;;-0.82;100.00;102173.28;5009424;28;20468;-72
2021/10/10 05:18:48;;;;;;;26.57;15.20;;;;;;;-0.63;100.00;102161.31;5008354;28;20207;-72
2021/10/10 05:21:16;;;;;;;30.47;15.50;;;;;;;-0.56;100.00;102168.44;5005277;28;21074;-72
2021/10/10 05:23:43;;;;;;;32.70;16.83;;;;;;;-0.68;100.00;102162.78;5008214;28;20482;-71
2021/10/10 05:26:10;;;;;;;40.83;20.03;;;;;;;-0.65;100.00;102163.78;5003117;28;20473;-73
2021/10/10 05:28:37;;;;;;;35.70;18.63;;;;;;;-0.59;100.00;102163.19;5005593;28;20485;-72
2021/10/10 05:31:03;;;;;;;35.47;19.47;;;;;;;-0.80;100.00;102169.09;5002011;28;20494;-75
2021/10/10 05:33:30;;;;;;;35.20;19.13;;;;;;;-0.70;100.00;102167.84;5005551;28;20902;-73
2021/10/10 05:35:56;;;;;;;33.93;17.43;;;;;;;-0.85;100.00;102172.25;5004593;28;20471;-72
2021/10/10 05:38:24;;;;;;;31.77;16.27;;;;;;;-0.97;100.00;102165.78;5003757;28;20455;-71
2021/10/10 05:40:50;;;;;;;28.90;16.33;;;;;;;-0.92;100.00;102168.53;5008269;28;20466;-71
2021/10/10 05:43:16;;;;;;;33.63;15.70;;;;;;;-0.81;100.00;102163.91;5010771;28;20458;-71
2021/10/10 05:45:43;;;;;;;27.10;15.50;;;;;;;-0.55;100.00;102162.50;5007040;28;20200;-71
2021/10/10 05:48:10;;;;;;;29.63;15.10;;;;;;;-0.43;100.00;102168.16;5009465;28;20808;-73
2021/10/10 05:50:36;;;;;;;30.40;14.00;;;;;;;-0.54;100.00;102171.09;5002893;28;20477;-72
2021/10/10 05:53:07;;;;;;;32.57;15.93;;;;;;;-0.57;100.00;102170.09;5008908;28;20455;-71
2021/10/10 05:55:37;;;;;;;26.67;15.67;;;;;;;-0.55;100.00;102164.19;5008145;28;20205;-72
2021/10/10 05:58:04;;;;;;;30.03;15.80;;;;;;;-0.25;100.00;102162.06;5005137;28;20909;-72
2021/10/10 06:00:31;;;;;;;34.90;17.13;;;;;;;-0.35;100.00;102171.06;5008291;28;20259;-72
2021/10/10 06:02:57;;;;;;;38.17;18.87;;;;;;;-0.51;100.00;102166.06;5006678;28;20322;-71
2021/10/10 06:05:24;;;;;;;36.67;18.87;;;;;;;-0.44;100.00;102165.53;5009153;28;20454;-72
2021/10/10 06:07:50;;;;;;;35.60;18.57;;;;;;;-0.37;100.00;102159.84;5008777;28;20201;-72
2021/10/10 06:10:17;;;;;;;43.73;20.10;;;;;;;-0.18;100.00;102158.94;5008035;28;20223;-72
2021/10/10 06:12:45;;;;;;;36.37;19.43;;;;;;;-0.16;100.00;102159.03;5008361;28;20234;-72
2021/10/10 06:15:12;;;;;;;36.77;19.30;;;;;;;0.03;100.00;102163.25;5003737;28;20224;-73
2021/10/10 06:17:38;;;;;;;39.90;20.33;;;;;;;0.23;100.00;102154.69;5006111;28;20197;-73
2021/10/10 06:20:07;;;;;;;42.10;20.03;;;;;;;0.03;100.00;102158.13;5008924;28;20703;-71
2021/10/10 06:22:35;;;;;;;41.33;20.27;;;;;;;0.02;100.00;102164.03;5007694;28;20782;-72
2021/10/10 06:25:02;;;;;;;46.70;22.93;;;;;;;0.04;100.00;102162.44;5006397;28;20214;-73
2021/10/10 06:27:28;;;;;;;56.10;23.73;;;;;;;0.06;100.00;102171.94;5004458;28;20216;-72
2021/10/10 06:29:56;;;;;;;51.10;23.93;;;;;;;0.13;100.00;102167.94;5005071;28;20217;-71
2021/10/10 06:32:25;;;;;;;46.30;22.70;;;;;;;0.22;100.00;102172.59;5006916;28;20310;-73
2021/10/10 06:34:51;;;;;;;45.23;22.67;;;;;;;0.31;100.00;102163.56;5006831;28;20591;-72
2021/10/10 06:37:17;;;;;;;53.90;24.53;;;;;;;0.38;100.00;102170.69;5008427;28;20204;-72
2021/10/10 06:39:44;;;;;;;56.90;25.80;;;;;;;0.49;100.00;102172.81;5007264;28;20201;-72
2021/10/10 06:42:10;;;;;;;49.17;23.37;;;;;;;0.50;100.00;102172.88;5006116;28;20235;-72
2021/10/10 06:44:37;;;;;;;50.00;23.30;;;;;;;0.64;100.00;102172.56;5005695;28;20213;-72
2021/10/10 06:47:05;;;;;;;47.70;23.57;;;;;;;0.78;100.00;102181.66;5005377;28;20239;-71
2021/10/10 06:49:31;;;;;;;47.40;24.30;;;;;;;0.86;100.00;102177.72;5002659;28;20673;-72
2021/10/10 06:51:58;;;;;;;50.13;24.13;;;;;;;0.96;100.00;102175.50;5006892;28;20318;-73
2021/10/10 06:54:25;;;;;;;51.13;24.70;;;;;;;1.04;100.00;102176.63;5000563;28;20542;-73
2021/10/10 06:56:51;;;;;;;53.67;25.00;;;;;;;1.13;100.00;102180.44;5016643;28;20297;-72
2021/10/10 06:59:18;;;;;;;49.13;24.70;;;;;;;1.25;100.00;102182.59;5017099;28;20272;-73
2021/10/10 07:01:44;;;;;;;59.97;26.33;;;;;;;1.38;100.00;102185.63;5019244;28;20223;-71
2021/10/10 07:04:12;;;;;;;57.17;25.27;;;;;;;1.46;100.00;102189.31;5018439;28;20216;-73
2021/10/10 07:06:40;;;;;;;51.83;26.50;;;;;;;1.60;100.00;102189.81;5038195;28;20242;-73
2021/10/10 07:09:07;;;;;;;53.83;26.27;;;;;;;1.69;100.00;102179.88;5022034;28;20427;-73
2021/10/10 07:11:33;;;;;;;60.50;27.97;;;;;;;1.81;100.00;102189.69;5019644;28;20236;-72
2021/10/10 07:14:04;;;;;;;58.43;26.00;;;;;;;1.86;100.00;102185.59;5024567;28;20206;-72
2021/10/10 07:16:35;;;;;;;57.60;27.40;;;;;;;1.97;100.00;102191.09;5023210;28;20208;-73
2021/10/10 07:19:04;;;;;;;59.13;26.53;;;;;;;2.06;100.00;102192.31;5022747;28;20658;-72
2021/10/10 07:21:44;;;;;;;62.73;27.83;;;;;;;2.18;100.00;102197.00;5019893;28;20230;-73
2021/10/10 07:26:56;;;;;;;57.40;27.03;;;;;;;2.36;100.00;102199.31;5020616;28;20293;-71
2021/10/10 07:29:24;;;;;;;59.73;26.93;;;;;;;2.51;100.00;102195.47;5017591;28;20204;-73
2021/10/10 07:31:50;;;;;;;56.20;27.10;;;;;;;2.59;100.00;102200.03;5021559;28;20285;-71
2021/10/10 07:34:16;;;;;;;53.43;26.93;;;;;;;2.69;100.00;102205.47;5019869;28;20207;-72
2021/10/10 07:36:45;;;;;;;47.17;25.67;;;;;;;2.82;100.00;102203.34;5022042;28;20210;-73
2021/10/10 07:39:12;;;;;;;51.10;25.73;;;;;;;2.94;100.00;102195.13;5021682;28;20663;-71
2021/10/10 07:41:40;;;;;;;47.97;24.97;;;;;;;2.96;100.00;102201.19;5022444;28;20226;-71
2021/10/10 07:44:08;;;;;;;44.53;23.80;;;;;;;3.07;100.00;102210.94;5018810;28;20235;-71
2021/10/10 07:46:37;;;;;;;42.67;22.57;;;;;;;3.25;100.00;102202.88;5017054;28;20221;-72
2021/10/10 07:49:05;;;;;;;43.07;23.53;;;;;;;3.29;100.00;102212.44;5019078;28;20196;-72
2021/10/10 07:51:32;;;;;;;42.20;22.53;;;;;;;3.42;100.00;102205.09;5018204;28;20232;-73
2021/10/10 07:54:00;;;;;;;38.07;19.80;;;;;;;3.49;100.00;102208.75;5020336;28;20201;-71
2021/10/10 07:56:27;;;;;;;34.50;20.60;;;;;;;3.57;100.00;102196.94;5020497;28;20648;-71
2021/10/10 07:58:53;;;;;;;33.80;19.47;;;;;;;3.68;100.00;102197.25;5019481;28;20564;-72
2021/10/10 08:01:21;;;;;;;36.00;19.03;;;;;;;3.82;100.00;102204.47;5018529;28;20235;-72
2021/10/10 08:03:47;;;;;;;32.57;18.37;;;;;;;3.87;100.00;102208.03;5022616;28;20219;-73
2021/10/10 08:06:14;;;;;;;33.00;18.67;;;;;;;3.92;100.00;102207.34;5017245;28;20296;-73
2021/10/10 08:08:40;;;;;;;31.30;17.03;;;;;;;4.04;100.00;102203.34;5018858;28;20208;-72
2021/10/10 08:11:08;;;;;;;30.33;17.60;;;;;;;4.11;100.00;102208.69;5018393;28;20233;-73
2021/10/10 08:13:35;;;;;;;31.10;16.73;;;;;;;4.19;100.00;102206.31;5022016;28;20602;-72
2021/10/10 08:16:01;;;;;;;28.80;16.67;;;;;;;4.34;97.21;102208.38;5020763;28;20767;-72
2021/10/10 08:18:28;;;;;;;29.83;16.83;;;;;;;4.44;95.47;102219.84;5018586;28;20263;-71
2021/10/10 08:20:54;;;;;;;29.17;16.37;;;;;;;4.60;96.31;102209.03;5019932;28;20244;-73
2021/10/10 08:23:21;;;;;;;28.60;14.87;;;;;;;4.68;94.09;102207.50;5019609;28;20227;-72
2021/10/10 08:25:47;;;;;;;26.30;14.97;;;;;;;4.82;91.98;102214.69;5019322;28;20239;-73
2021/10/10 08:28:15;;;;;;;25.60;15.60;;;;;;;4.92;92.51;102206.31;5021455;28;20274;-72
2021/10/10 08:30:41;;;;;;;25.40;15.40;;;;;;;5.08;90.56;102212.69;5020607;28;20217;-70
2021/10/10 08:33:08;;;;;;;25.03;15.10;;;;;;;5.15;91.90;102203.38;5021169;28;20346;-72
2021/10/10 08:35:34;;;;;;;24.73;14.70;;;;;;;5.21;95.37;102206.09;5021715;28;20564;-73
2021/10/10 08:38:01;;;;;;;26.33;14.63;;;;;;;5.29;90.50;102210.59;5022297;28;20201;-72
2021/10/10 08:40:29;;;;;;;25.00;14.33;;;;;;;5.48;86.88;102210.97;5019532;28;20272;-70
2021/10/10 08:43:01;;;;;;;25.60;15.60;;;;;;;5.56;89.11;102205.91;5018584;28;20204;-71
2021/10/10 08:45:30;;;;;;;25.77;15.23;;;;;;;5.65;87.77;102208.72;5017798;28;20193;-72
2021/10/10 08:47:59;;;;;;;25.77;14.13;;;;;;;5.81;85.20;102217.66;5023121;28;20218;-73
2021/10/10 08:50:28;;;;;;;28.20;14.57;;;;;;;5.92;83.81;102217.84;5019659;28;20225;-72
2021/10/10 08:52:57;;;;;;;29.27;14.73;;;;;;;6.07;81.94;102215.56;5023917;28;20207;-71
2021/10/10 08:55:25;;;;;;;25.03;14.00;;;;;;;6.14;82.52;102220.00;5025960;28;20203;-71
2021/10/10 08:57:53;;;;;;;24.53;14.27;;;;;;;6.33;82.22;102216.03;5024329;28;20315;-73
2021/10/10 09:00:22;;;;;;;27.10;15.03;;;;;;;6.41;81.08;102214.41;5020867;28;20205;-72
2021/10/10 09:02:51;;;;;;;23.23;13.23;;;;;;;6.50;79.69;102220.59;5023631;28;20225;-71
2021/10/10 09:05:18;;;;;;;22.67;13.63;;;;;;;6.58;81.06;102217.28;5025059;28;20201;-73
2021/10/10 09:07:45;;;;;;;22.23;13.13;;;;;;;6.78;78.43;102204.63;5022938;28;20381;-73
2021/10/10 09:10:19;;;;;;;28.00;13.80;;;;;;;6.89;77.11;102209.97;5026400;28;20232;-71
2021/10/10 09:12:47;;;;;;;20.97;12.77;;;;;;;6.98;78.46;102204.03;5026536;28;20216;-71
2021/10/10 09:15:19;;;;;;;25.10;12.53;;;;;;;7.14;75.90;102207.69;5027708;28;20255;-71
2021/10/10 09:17:58;;;;;;;20.10;11.77;;;;;;;7.30;76.36;102204.47;5027702;28;20193;-70
2021/10/10 09:20:34;;;;;;;15.47;10.80;;;;;;;7.35;75.17;102201.91;5025985;28;20203;-72
2021/10/10 09:23:01;;;;;;;19.43;11.73;;;;;;;7.58;73.13;102204.78;5026937;28;20208;-71
2021/10/10 09:25:28;;;;;;;20.27;12.10;;;;;;;7.73;72.84;102201.50;5042306;28;20212;-72
2021/10/10 09:28:00;;;;;;;18.97;11.90;;;;;;;7.84;72.77;102206.81;5029627;28;20212;-71
2021/10/10 09:30:28;;;;;;;19.43;10.90;;;;;;;7.82;72.32;102198.13;5029732;28;20223;-71
2021/10/10 09:32:55;;;;;;;19.13;10.87;;;;;;;7.90;70.33;102199.97;5030668;28;20197;-72
2021/10/10 09:35:27;;;;;;;18.67;10.17;;;;;;;8.01;70.94;102191.41;5026085;28;20276;-71
2021/10/10 09:38:12;;;;;;;14.93;10.20;;;;;;;8.14;71.23;102193.25;5026675;28;20219;-71
2021/10/10 09:40:51;;;;;;;21.07;11.13;;;;;;;8.29;69.91;102195.13;5027187;28;20301;-71
2021/10/10 09:43:18;;;;;;;17.97;10.40;;;;;;;8.39;70.33;102185.66;5027240;28;20208;-71
2021/10/10 09:45:54;;;;;;;16.20;10.57;;;;;;;8.51;68.70;102190.97;5027525;28;20204;-71
2021/10/10 09:48:32;;;;;;;16.50;10.33;;;;;;;8.71;67.46;102186.78;5028072;28;20204;-72
2021/10/10 09:51:03;;;;;;;21.60;10.00;;;;;;;8.84;65.30;102186.88;5026764;28;20231;-71
2021/10/10 09:53:32;;;;;;;15.60;10.03;;;;;;;8.85;68.58;102166.06;5032685;28;20255;-71
2021/10/10 09:56:03;;;;;;;16.13;9.60;;;;;;;8.93;67.19;102173.03;5010796;28;20212;-71
2021/10/10 09:58:35;;;;;;;15.83;9.80;;;;;;;8.99;65.23;102175.66;5028535;28;20581;-71
2021/10/10 10:01:13;;;;;;;14.37;10.20;;;;;;;9.13;64.62;102176.63;5030211;28;20225;-71
2021/10/10 10:03:55;;;;;;;17.23;9.80;;;;;;;9.23;64.62;102168.00;5029658;28;20190;-71
2021/10/10 10:06:24;;;;;;;16.10;9.67;;;;;;;9.37;63.50;102167.16;5028138;28;20207;-71
2021/10/10 10:08:50;;;;;;;12.73;9.00;;;;;;;9.54;62.40;102165.50;5028011;28;20728;-71
2021/10/10 10:11:18;;;;;;;15.40;9.37;;;;;;;9.69;61.88;102167.25;5025278;28;20301;-71
2021/10/10 10:13:46;;;;;;;14.00;8.67;;;;;;;9.71;60.58;102169.84;5046810;28;20229;-71
2021/10/10 10:16:16;;;;;;;12.53;8.40;;;;;;;9.78;61.91;102166.41;5027064;28;20215;-71
2021/10/10 10:18:45;;;;;;;13.63;8.93;;;;;;;9.70;63.47;102160.31;5026367;28;20273;-69
2021/10/10 10:21:14;;;;;;;13.33;8.60;;;;;;;9.85;61.88;102158.63;5026997;28;20225;-69
2021/10/10 10:23:47;;;;;;;14.20;8.10;;;;;;;10.07;60.21;102163.84;5029047;28;20201;-71
2021/10/10 10:26:16;;;;;;;14.23;8.37;;;;;;;10.19;59.12;102163.84;5030021;28;20206;-71
2021/10/10 10:28:47;;;;;;;11.83;7.47;;;;;;;10.31;58.15;102154.28;5030245;28;20199;-71
2021/10/10 10:31:18;;;;;;;15.33;8.00;;;;;;;10.40;57.84;102156.91;5026979;28;20218;-71
2021/10/10 10:33:46;;;;;;;12.30;7.80;;;;;;;10.47;57.75;102153.44;5033731;28;20187;-71
2021/10/10 10:36:13;;;;;;;14.70;8.60;;;;;;;10.45;58.46;102144.75;5028700;28;20214;-74
2021/10/10 10:38:47;;;;;;;16.07;7.97;;;;;;;10.50;57.81;102156.03;5030107;28;20185;-71
2021/10/10 10:41:54;;;;;;;12.90;7.60;;;;;;;10.65;57.31;102157.75;5029480;28;20283;-71
2021/10/10 10:44:43;;;;;;;11.87;7.07;;;;;;;10.88;58.04;102149.00;4959520;28;20210;-71
2021/10/10 10:47:13;;;;;;;13.73;7.60;;;;;;;10.98;55.93;102146.34;5023395;28;20222;-70
2021/10/10 10:50:00;;;;;;;12.17;7.53;;;;;;;11.06;56.21;102141.06;5025920;28;20213;-68
2021/10/10 10:52:29;;;;;;;13.67;7.77;;;;;;;11.07;56.85;102131.53;5021751;28;20239;-69
2021/10/10 10:55:16;;;;;;;10.40;7.30;;;;;;;11.15;53.85;102133.22;5025723;28;20204;-69
2021/10/10 10:57:48;;;;;;;13.43;8.20;;;;;;;11.20;53.26;102133.19;5023837;28;20184;-72
2021/10/10 11:00:22;;;;;;;12.70;7.80;;;;;;;11.22;54.70;102122.75;5026706;28;20228;-71
2021/10/10 11:03:11;;;;;;;15.70;8.70;;;;;;;11.31;54.82;102128.81;5024382;28;20719;-71
2021/10/10 11:05:50;;;;;;;11.40;7.27;;;;;;;11.33;54.19;102124.44;5027857;28;20219;-69
2021/10/10 11:08:41;;;;;;;12.83;7.07;;;;;;;11.33;54.22;102113.13;5025012;28;20216;-69
2021/10/10 11:11:25;;;;;;;13.53;7.33;;;;;;;11.36;54.43;102108.75;5027528;28;20255;-69
2021/10/10 11:13:59;;;;;;;12.20;7.40;;;;;;;11.44;52.46;102107.84;5045245;28;20184;-69
2021/10/10 11:16:32;;;;;;;16.60;7.33;;;;;;;11.55;52.10;102101.66;5030202;28;20185;-69